Terminal Aerodrome Forecast
Issued by NWS Wichita, KS

Home | Current Version | Previous Version | Text Only | Print | Product List | Glossary Off
Versions: 1 2 3 4 5 6 7 8 9 10 11 12 13 14 15 16

000
FTUS43 KICT 302335
TAFICT
TAF
KICT 302335Z 3100/3124 19012KT P6SM SCT250
     FM310100 19006KT P6SM SCT200
     FM311000 VRB03KT 5SM BR FEW020 SCT250
     FM311400 07008KT P6SM FEW100
     FM311700 10013KT P6SM FEW120=

USA.gov is the U.S. government's official web portal to all federal, state and local government web resources and services.